India Meteorological Department
Airport METARs
Date : 21-02-2019
Sl. # Airport METAR
1 Agartala VEAT 211400Z 00000KT 4000 BR NSC 21/18 Q1015 NOSIG=
2 Ahmedabad VAAH 211500Z 01003KT 4000 FU NSC 26/16 Q1016 NOSIG=
3 Allahabad VEAB 211500Z 14004KT 5000 BR FEW030 SCT250 24/24 Q1015 NOSIG=
4 Amritsar VIAR 211500Z 32003KT 2000 BR FEW035 SCT100 15/15 Q1017 NOSIG=
5 Aurangabad VAAU 211500Z 00000KT 3000 HZ NSC 28/15 Q1017 NOSIG=
6 Bangalore VOBL 211500Z 09003KT 8000 FEW015 24/11 Q1021 NOSIG=
7 Baroda VABO 211500Z 23003KT 6000 NSC 28/13 Q1015 NOSIG=
8 Bhaunagar VABV 211500Z 21004KT 4000 FU NSC 27/11 Q1016=
9 Bhopal VABP 211500Z 20005KT 6000 NSC 27/15 Q1017 NOSIG=
10 Bhubaneswar VEBS 211500Z 18003KT 4000 HZ NSC 26/23 Q1015 NOSIG=
11 Chennai VOMM 211500Z 03004KT 6000 FEW020 27/21 Q1017 NOSIG=
12 Coimbatore VOCB 211500Z 07005KT 6000 NSC 29/13 Q1017 NOSIG=
13 Colombo VCBI 211510Z 04014G24KT CAVOK 28/21 Q1013 NOSIG=
14 Delhi VIDP 211500Z 09003KT 3500 HZ SCT040 BKN100 23/16 Q1015 NOSIG=
15 Dehradun VIDN 211500Z 04003KT 3000 HZ SCT030 BKN070 17/13 Q1017=
16 Gauhati VEGT 211500Z 00000KT 3000 BR SCT020 BKN100 19/15 Q1016 NOSIG=
17 Gaya VEGY 211500Z 04004KT 3000 HZ FEW250 21/17 Q1015 =
18 Goa VOGO 211500Z 34006KT 6000 NSC 26/23 Q1014 NOSIG=
19 Hyderabad VOHS 211500Z NIL=
20 Indore VAID 211500Z 29002KT 5000 HZ NSC 26/11 Q1018 NOSIG=
21 Jabalpur VAJB 211400Z 18006KT 4000 HZ SCT030 28/16 Q1016=
22 Jaipur VIJP 211500Z 34010KT 3000 HZ SCT035 SCT100 25/14 Q1016 NOSIG=
23 Kochi VOCI 211500Z 00000KT 4000 HZ FEW015 28/22 Q1013 NOSIG=
24 Kolkata VECC 211500Z 00000KT 3200 HZ NSC 26/15 Q1015 BECMG 3000 HZ=
25 Kozhikode VOCL 211500Z 29005KT 5000 HZ NSC 28/23 Q1013 NOSIG=
26 Lucknow VILK 211500Z VRB02KT 2500 HZ SCT100 22/16 Q1015 NOSIG=
27 Madurai VOMD 211500Z 07004KT 6000 FEW020 29/16 Q1015 NOSIG=
28 Mumbai VABB 211500Z 31005KT 3000 HZ FEW020 27/19 Q1016 NOSIG=
29 Nagpur VANP 211500Z 15003KT 3000 HZ FEW100 29/15 Q1016 NOSIG=
30 Patna VEPT 211500Z 00000KT 3500 HZ NSC 21/15 Q1014 NOSIG=
31 Raipur VERP 211500Z 31004KT 6000 NSC 28/18 Q1017 NOSIG=
32 Surat VASU 211500Z 26004KT 5000 HZ NSC 26/17 Q1015=
33 Ranchi VERC 211500Z 00000KT 4000 HZ NSC 23/13 Q1019 NOSIG=
34 Trichy VOTR 211500Z 05008KT 5000 HZ FEW016 28/20 Q1014 NOSIG=
35 Trivandrum VOTV 211500Z 36005KT 4000 HZ FEW015 30/23 Q1013 NOSIG=
36 Udaipur VAUD 211400Z 32003KT 5000 SCT100 27/07 Q1016 NOSIG=
37 Varanasi VEBN 211500Z VRB02KT 2500 HZ FEW100 24/16 Q1015 NOSIG=
38 Vizag VOVZ 211500Z 29004KT 4500 BR NSC 26/23 Q1017 NOSIG=
39 Male VRMM 211500Z 05013KT 9000 FEW018TCU 29/24 Q1013 NOSIG=
40 Gan SPECI VRMG 211455Z VRB02KT 7000 TS SCT017 FEW018CB BKN260 26/25 Q1013 RESHRA CB SW,W TEMPO 3000 TSRA=
41 Kathmandu VNKT 211520Z 10005KT 6000 FEW020 14/10 Q1021 NOSIG=
42 Dhaka VGHS 211500Z 14003KT 3500 HZ NSC 23/15 Q1016 NOSIG=
43 Colombo VCBI 211510Z 04014G24KT CAVOK 28/21 Q1013 NOSIG=
44 Karachi OPKC 211455Z 26003KT 5000 HZ FEW020 23/10 Q1018 NOSIG=
45 Lahore OPLA 211455Z 32006KT 4000 FU SCT040 SCT100 15/11 Q1017 TEMPO 34015G30KT 2000 -TSRA FEW030CB RMK QFE991 RMK A30.03=
46 Leh VILH 211500Z VRB02KT 6000 -SN SKY OBS -3/-3 Q1019 NOSIG=
47 Sri Nagar VISR 211500Z 32005KT 6000 SCT003 BKN008 FEW015TCU BKN080 03/03 Q1019 TEMPO TSRA=
48 Jammu VIJU 211500Z VRB01KT 6000 SCT025 BKN090 16/15 Q1016 NOSIG=
49 Jodhpur VIJO 211500Z 02005KT 6000 FEW030 SCT100 22/14 Q1018 NOSIG=
50 Jaisalmer VIJR 211500Z 32005KT 6000 FEW030 19/09 Q1019 NOSIG=
51 Bhuj-Rudra VABJ 211500Z 32003KT 6000 SCT090 25/13 Q1018 NOSIG=
52 Gorakhpur VEGK 211500Z VRB01KT 6000 FEW200 18/17 Q1015 NOSIG=
53 Agra VIAG 211500Z 05003KT 5000 BR SCT100 BKN250 22/21 Q1015 NOSIG=
54 Bagdogra VEBD 211500Z VRB01KT 5000 BR BKN080 BKN250 19/16 Q1017 NOSIG=
55 Gwalior VIGR 211500Z 25003KT 6000 FEW035 BKN100 24/19 Q1015 NOSIG=
56 Pune VAPO 211500Z 29007KT 6000 FEW040 29/15 Q1019 NOSIG=
57 Chandigarh VICG 211500Z VRB02KT 6000 SCT030 FEW040TCU 18/17 Q1017 NOSIG=
58 Jamnagar VAJM 211500Z 27010KT 6000 SKC 23/19 Q1017 NOSIG=

 

--- End of List ---